sensor_id;sensor_type;location;lat;lon;timestamp;P1;durP1;ratioP1;P2;durP2;ratioP2
7761;SDS011;3925;48.636;9.516;2023-04-15T00:02:14;3.00;;;2.63;;
7761;SDS011;3925;48.636;9.516;2023-04-15T00:04:42;6.20;;;3.17;;
7761;SDS011;3925;48.636;9.516;2023-04-15T00:07:10;3.83;;;2.50;;
7761;SDS011;3925;48.636;9.516;2023-04-15T00:09:36;3.30;;;2.90;;
7761;SDS011;3925;48.636;9.516;2023-04-15T00:12:03;4.93;;;2.77;;
7761;SDS011;3925;48.636;9.516;2023-04-15T00:14:30;3.87;;;2.63;;
7761;SDS011;3925;48.636;9.516;2023-04-15T00:16:58;4.27;;;2.60;;
7761;SDS011;3925;48.636;9.516;2023-04-15T00:19:27;2.80;;;2.57;;
7761;SDS011;3925;48.636;9.516;2023-04-15T00:21:54;6.57;;;3.20;;
7761;SDS011;3925;48.636;9.516;2023-04-15T00:24:21;5.20;;;3.03;;
7761;SDS011;3925;48.636;9.516;2023-04-15T00:26:48;3.43;;;2.47;;
7761;SDS011;3925;48.636;9.516;2023-04-15T00:29:15;6.63;;;2.70;;
7761;SDS011;3925;48.636;9.516;2023-04-15T00:31:42;3.60;;;2.90;;
7761;SDS011;3925;48.636;9.516;2023-04-15T00:34:08;6.27;;;2.80;;
7761;SDS011;3925;48.636;9.516;2023-04-15T00:36:37;4.43;;;2.47;;
7761;SDS011;3925;48.636;9.516;2023-04-15T00:39:03;12.47;;;2.77;;
7761;SDS011;3925;48.636;9.516;2023-04-15T00:41:30;8.03;;;3.00;;
7761;SDS011;3925;48.636;9.516;2023-04-15T00:43:58;7.67;;;3.10;;
7761;SDS011;3925;48.636;9.516;2023-04-15T00:46:26;4.57;;;2.90;;
7761;SDS011;3925;48.636;9.516;2023-04-15T00:48:55;2.93;;;2.40;;
7761;SDS011;3925;48.636;9.516;2023-04-15T00:51:22;3.43;;;2.70;;
7761;SDS011;3925;48.636;9.516;2023-04-15T00:53:51;6.07;;;3.77;;
7761;SDS011;3925;48.636;9.516;2023-04-15T00:56:18;4.60;;;2.90;;
7761;SDS011;3925;48.636;9.516;2023-04-15T00:58:48;2.70;;;2.43;;
7761;SDS011;3925;48.636;9.516;2023-04-15T01:01:16;3.17;;;2.63;;
7761;SDS011;3925;48.636;9.516;2023-04-15T01:03:46;2.80;;;2.27;;
7761;SDS011;3925;48.636;9.516;2023-04-15T01:06:14;5.00;;;2.10;;
7761;SDS011;3925;48.636;9.516;2023-04-15T01:08:41;5.20;;;2.67;;
7761;SDS011;3925;48.636;9.516;2023-04-15T01:11:10;3.10;;;2.00;;
7761;SDS011;3925;48.636;9.516;2023-04-15T01:13:38;7.13;;;2.33;;
7761;SDS011;3925;48.636;9.516;2023-04-15T01:16:05;3.00;;;2.80;;
7761;SDS011;3925;48.636;9.516;2023-04-15T01:18:33;5.10;;;2.87;;
7761;SDS011;3925;48.636;9.516;2023-04-15T01:21:01;3.53;;;2.10;;
7761;SDS011;3925;48.636;9.516;2023-04-15T01:23:29;3.20;;;1.97;;
7761;SDS011;3925;48.636;9.516;2023-04-15T01:25:58;2.50;;;2.03;;
7761;SDS011;3925;48.636;9.516;2023-04-15T01:28:25;1.97;;;1.87;;
7761;SDS011;3925;48.636;9.516;2023-04-15T01:31:03;3.47;;;1.90;;
7761;SDS011;3925;48.636;9.516;2023-04-15T01:33:32;4.00;;;2.20;;
7761;SDS011;3925;48.636;9.516;2023-04-15T01:35:59;2.73;;;1.83;;
7761;SDS011;3925;48.636;9.516;2023-04-15T01:38:26;2.37;;;2.17;;
7761;SDS011;3925;48.636;9.516;2023-04-15T01:40:54;4.13;;;1.63;;
7761;SDS011;3925;48.636;9.516;2023-04-15T01:43:22;2.10;;;2.00;;
7761;SDS011;3925;48.636;9.516;2023-04-15T01:45:49;3.10;;;2.20;;
7761;SDS011;3925;48.636;9.516;2023-04-15T01:48:16;5.73;;;2.10;;
7761;SDS011;3925;48.636;9.516;2023-04-15T01:50:43;3.70;;;2.13;;
7761;SDS011;3925;48.636;9.516;2023-04-15T01:53:10;2.23;;;1.80;;
7761;SDS011;3925;48.636;9.516;2023-04-15T01:55:37;5.17;;;2.67;;
7761;SDS011;3925;48.636;9.516;2023-04-15T01:58:04;2.70;;;2.43;;
7761;SDS011;3925;48.636;9.516;2023-04-15T02:00:32;2.53;;;2.33;;
7761;SDS011;3925;48.636;9.516;2023-04-15T02:02:59;4.03;;;3.30;;
7761;SDS011;3925;48.636;9.516;2023-04-15T02:05:26;3.23;;;3.00;;
7761;SDS011;3925;48.636;9.516;2023-04-15T02:07:53;6.20;;;3.40;;
7761;SDS011;3925;48.636;9.516;2023-04-15T02:10:19;3.00;;;2.50;;
7761;SDS011;3925;48.636;9.516;2023-04-15T02:12:47;4.47;;;3.53;;
7761;SDS011;3925;48.636;9.516;2023-04-15T02:15:14;5.50;;;3.07;;
7761;SDS011;3925;48.636;9.516;2023-04-15T02:17:42;5.53;;;2.87;;
7761;SDS011;3925;48.636;9.516;2023-04-15T02:20:14;4.90;;;2.27;;
7761;SDS011;3925;48.636;9.516;2023-04-15T02:22:41;2.97;;;2.70;;
7761;SDS011;3925;48.636;9.516;2023-04-15T02:25:08;6.03;;;3.37;;
7761;SDS011;3925;48.636;9.516;2023-04-15T02:27:35;7.43;;;3.03;;
7761;SDS011;3925;48.636;9.516;2023-04-15T02:30:02;4.40;;;3.07;;
7761;SDS011;3925;48.636;9.516;2023-04-15T02:32:31;3.23;;;2.57;;
7761;SDS011;3925;48.636;9.516;2023-04-15T02:35:02;4.47;;;2.77;;
7761;SDS011;3925;48.636;9.516;2023-04-15T02:37:29;4.43;;;2.27;;
7761;SDS011;3925;48.636;9.516;2023-04-15T02:39:59;3.87;;;2.93;;
7761;SDS011;3925;48.636;9.516;2023-04-15T02:42:26;2.90;;;2.70;;
7761;SDS011;3925;48.636;9.516;2023-04-15T02:44:54;4.00;;;2.80;;
7761;SDS011;3925;48.636;9.516;2023-04-15T02:47:22;2.87;;;2.30;;
7761;SDS011;3925;48.636;9.516;2023-04-15T02:49:49;9.20;;;4.07;;
7761;SDS011;3925;48.636;9.516;2023-04-15T02:52:17;3.17;;;2.50;;
7761;SDS011;3925;48.636;9.516;2023-04-15T02:54:44;2.90;;;2.70;;
7761;SDS011;3925;48.636;9.516;2023-04-15T02:57:10;3.73;;;3.43;;
7761;SDS011;3925;48.636;9.516;2023-04-15T02:59:37;4.30;;;2.97;;
7761;SDS011;3925;48.636;9.516;2023-04-15T03:02:04;2.80;;;2.60;;
7761;SDS011;3925;48.636;9.516;2023-04-15T03:04:32;4.77;;;2.63;;
7761;SDS011;3925;48.636;9.516;2023-04-15T03:06:59;4.00;;;2.80;;
7761;SDS011;3925;48.636;9.516;2023-04-15T03:09:28;3.60;;;2.43;;
7761;SDS011;3925;48.636;9.516;2023-04-15T03:11:54;2.83;;;2.60;;
7761;SDS011;3925;48.636;9.516;2023-04-15T03:14:21;3.73;;;3.23;;
7761;SDS011;3925;48.636;9.516;2023-04-15T03:16:48;2.77;;;2.57;;
7761;SDS011;3925;48.636;9.516;2023-04-15T03:19:16;4.63;;;2.30;;
7761;SDS011;3925;48.636;9.516;2023-04-15T03:21:42;2.73;;;2.50;;
7761;SDS011;3925;48.636;9.516;2023-04-15T03:24:09;2.97;;;2.20;;
7761;SDS011;3925;48.636;9.516;2023-04-15T03:26:37;2.43;;;2.23;;
7761;SDS011;3925;48.636;9.516;2023-04-15T03:29:04;4.80;;;2.67;;
7761;SDS011;3925;48.636;9.516;2023-04-15T03:31:31;2.80;;;2.60;;
7761;SDS011;3925;48.636;9.516;2023-04-15T03:33:58;6.03;;;3.00;;
7761;SDS011;3925;48.636;9.516;2023-04-15T03:36:25;2.77;;;2.47;;
7761;SDS011;3925;48.636;9.516;2023-04-15T03:38:54;3.50;;;3.20;;
7761;SDS011;3925;48.636;9.516;2023-04-15T03:41:21;3.13;;;2.57;;
7761;SDS011;3925;48.636;9.516;2023-04-15T03:43:50;4.10;;;3.63;;
7761;SDS011;3925;48.636;9.516;2023-04-15T03:46:17;3.70;;;3.37;;
7761;SDS011;3925;48.636;9.516;2023-04-15T03:48:43;4.37;;;3.70;;
7761;SDS011;3925;48.636;9.516;2023-04-15T03:51:10;7.50;;;4.30;;
7761;SDS011;3925;48.636;9.516;2023-04-15T03:53:37;4.03;;;3.60;;
7761;SDS011;3925;48.636;9.516;2023-04-15T03:58:35;4.03;;;3.20;;
7761;SDS011;3925;48.636;9.516;2023-04-15T04:01:03;5.03;;;3.27;;
7761;SDS011;3925;48.636;9.516;2023-04-15T04:03:30;2.93;;;2.73;;
7761;SDS011;3925;48.636;9.516;2023-04-15T04:05:57;4.13;;;3.83;;
7761;SDS011;3925;48.636;9.516;2023-04-15T04:08:25;4.10;;;3.70;;
7761;SDS011;3925;48.636;9.516;2023-04-15T04:10:52;3.20;;;2.90;;
7761;SDS011;3925;48.636;9.516;2023-04-15T04:13:18;4.20;;;3.90;;
7761;SDS011;3925;48.636;9.516;2023-04-15T04:15:45;5.17;;;4.10;;
7761;SDS011;3925;48.636;9.516;2023-04-15T04:18:13;5.03;;;3.93;;
7761;SDS011;3925;48.636;9.516;2023-04-15T04:20:40;5.40;;;3.77;;
7761;SDS011;3925;48.636;9.516;2023-04-15T04:23:07;5.37;;;3.87;;
7761;SDS011;3925;48.636;9.516;2023-04-15T04:25:34;6.50;;;4.00;;
7761;SDS011;3925;48.636;9.516;2023-04-15T04:28:01;6.77;;;5.13;;
7761;SDS011;3925;48.636;9.516;2023-04-15T04:30:28;4.80;;;3.93;;
7761;SDS011;3925;48.636;9.516;2023-04-15T04:32:55;5.07;;;4.30;;
7761;SDS011;3925;48.636;9.516;2023-04-15T04:35:23;6.63;;;4.13;;
7761;SDS011;3925;48.636;9.516;2023-04-15T04:37:50;6.10;;;4.37;;
7761;SDS011;3925;48.636;9.516;2023-04-15T04:40:17;4.80;;;3.93;;
7761;SDS011;3925;48.636;9.516;2023-04-15T04:42:44;5.77;;;3.47;;
7761;SDS011;3925;48.636;9.516;2023-04-15T04:45:11;5.00;;;3.83;;
7761;SDS011;3925;48.636;9.516;2023-04-15T04:47:38;5.10;;;3.40;;
7761;SDS011;3925;48.636;9.516;2023-04-15T04:50:06;5.60;;;3.77;;
7761;SDS011;3925;48.636;9.516;2023-04-15T04:52:35;7.47;;;3.30;;
7761;SDS011;3925;48.636;9.516;2023-04-15T04:55:02;4.33;;;2.53;;
7761;SDS011;3925;48.636;9.516;2023-04-15T04:57:29;3.20;;;2.90;;
7761;SDS011;3925;48.636;9.516;2023-04-15T04:59:56;5.50;;;3.30;;
7761;SDS011;3925;48.636;9.516;2023-04-15T05:02:23;3.63;;;3.23;;
7761;SDS011;3925;48.636;9.516;2023-04-15T05:04:51;7.43;;;3.40;;
7761;SDS011;3925;48.636;9.516;2023-04-15T05:07:19;3.23;;;3.00;;
7761;SDS011;3925;48.636;9.516;2023-04-15T05:09:47;4.33;;;3.93;;
7761;SDS011;3925;48.636;9.516;2023-04-15T05:12:14;4.50;;;3.00;;
7761;SDS011;3925;48.636;9.516;2023-04-15T05:14:42;3.90;;;3.17;;
7761;SDS011;3925;48.636;9.516;2023-04-15T05:17:10;3.00;;;2.70;;
7761;SDS011;3925;48.636;9.516;2023-04-15T05:19:38;3.70;;;3.40;;
7761;SDS011;3925;48.636;9.516;2023-04-15T05:22:04;4.50;;;3.10;;
7761;SDS011;3925;48.636;9.516;2023-04-15T05:24:31;3.80;;;3.50;;
7761;SDS011;3925;48.636;9.516;2023-04-15T05:27:00;3.87;;;3.43;;
7761;SDS011;3925;48.636;9.516;2023-04-15T05:29:27;6.87;;;3.87;;
7761;SDS011;3925;48.636;9.516;2023-04-15T05:31:53;7.10;;;4.60;;
7761;SDS011;3925;48.636;9.516;2023-04-15T05:34:21;6.10;;;3.90;;
7761;SDS011;3925;48.636;9.516;2023-04-15T05:36:48;5.03;;;4.50;;
7761;SDS011;3925;48.636;9.516;2023-04-15T05:39:14;5.70;;;4.90;;
7761;SDS011;3925;48.636;9.516;2023-04-15T05:41:41;7.77;;;4.97;;
7761;SDS011;3925;48.636;9.516;2023-04-15T05:44:10;4.30;;;3.77;;
7761;SDS011;3925;48.636;9.516;2023-04-15T05:46:37;5.60;;;4.00;;
7761;SDS011;3925;48.636;9.516;2023-04-15T05:49:03;3.90;;;3.17;;
7761;SDS011;3925;48.636;9.516;2023-04-15T05:51:31;4.47;;;3.30;;
7761;SDS011;3925;48.636;9.516;2023-04-15T05:53:57;6.43;;;3.80;;
7761;SDS011;3925;48.636;9.516;2023-04-15T05:56:25;7.47;;;4.80;;
7761;SDS011;3925;48.636;9.516;2023-04-15T05:58:52;4.60;;;3.97;;
7761;SDS011;3925;48.636;9.516;2023-04-15T06:01:20;7.13;;;4.10;;
7761;SDS011;3925;48.636;9.516;2023-04-15T06:03:47;6.70;;;5.87;;
7761;SDS011;3925;48.636;9.516;2023-04-15T06:06:14;5.83;;;5.20;;
7761;SDS011;3925;48.636;9.516;2023-04-15T06:08:41;4.30;;;3.40;;
7761;SDS011;3925;48.636;9.516;2023-04-15T06:11:07;5.17;;;4.20;;
7761;SDS011;3925;48.636;9.516;2023-04-15T06:13:34;5.90;;;3.27;;
7761;SDS011;3925;48.636;9.516;2023-04-15T06:16:01;3.93;;;3.20;;
7761;SDS011;3925;48.636;9.516;2023-04-15T06:18:30;5.87;;;5.27;;
7761;SDS011;3925;48.636;9.516;2023-04-15T06:20:57;5.23;;;4.73;;
7761;SDS011;3925;48.636;9.516;2023-04-15T06:23:24;4.07;;;3.33;;
7761;SDS011;3925;48.636;9.516;2023-04-15T06:25:51;5.83;;;4.10;;
7761;SDS011;3925;48.636;9.516;2023-04-15T06:28:17;4.70;;;3.67;;
7761;SDS011;3925;48.636;9.516;2023-04-15T06:30:44;8.33;;;3.93;;
7761;SDS011;3925;48.636;9.516;2023-04-15T06:33:11;3.93;;;3.53;;
7761;SDS011;3925;48.636;9.516;2023-04-15T06:35:39;3.53;;;3.23;;
7761;SDS011;3925;48.636;9.516;2023-04-15T06:38:06;4.90;;;4.00;;
7761;SDS011;3925;48.636;9.516;2023-04-15T06:40:33;4.90;;;3.80;;
7761;SDS011;3925;48.636;9.516;2023-04-15T06:43:00;4.90;;;4.40;;
7761;SDS011;3925;48.636;9.516;2023-04-15T06:45:28;6.97;;;4.70;;
7761;SDS011;3925;48.636;9.516;2023-04-15T06:47:56;5.40;;;4.50;;
7761;SDS011;3925;48.636;9.516;2023-04-15T06:50:22;6.77;;;5.20;;
7761;SDS011;3925;48.636;9.516;2023-04-15T06:52:51;5.13;;;4.67;;
7761;SDS011;3925;48.636;9.516;2023-04-15T06:55:18;4.70;;;4.10;;
7761;SDS011;3925;48.636;9.516;2023-04-15T06:57:45;5.30;;;3.80;;
7761;SDS011;3925;48.636;9.516;2023-04-15T07:00:12;7.93;;;4.47;;
7761;SDS011;3925;48.636;9.516;2023-04-15T07:02:39;4.70;;;4.10;;
7761;SDS011;3925;48.636;9.516;2023-04-15T07:05:06;4.30;;;2.90;;
7761;SDS011;3925;48.636;9.516;2023-04-15T07:07:34;3.03;;;2.73;;
7761;SDS011;3925;48.636;9.516;2023-04-15T07:10:03;4.43;;;3.60;;
7761;SDS011;3925;48.636;9.516;2023-04-15T07:12:30;7.00;;;4.03;;
7761;SDS011;3925;48.636;9.516;2023-04-15T07:14:57;9.00;;;3.50;;
7761;SDS011;3925;48.636;9.516;2023-04-15T07:17:24;5.13;;;3.10;;
7761;SDS011;3925;48.636;9.516;2023-04-15T07:19:51;7.10;;;3.30;;
7761;SDS011;3925;48.636;9.516;2023-04-15T07:22:18;3.93;;;3.03;;
7761;SDS011;3925;48.636;9.516;2023-04-15T07:24:44;5.33;;;3.07;;
7761;SDS011;3925;48.636;9.516;2023-04-15T07:27:13;3.83;;;3.00;;
7761;SDS011;3925;48.636;9.516;2023-04-15T07:29:40;4.37;;;3.57;;
7761;SDS011;3925;48.636;9.516;2023-04-15T07:32:06;3.70;;;3.00;;
7761;SDS011;3925;48.636;9.516;2023-04-15T07:34:34;3.10;;;2.70;;
7761;SDS011;3925;48.636;9.516;2023-04-15T07:37:01;3.20;;;2.90;;
7761;SDS011;3925;48.636;9.516;2023-04-15T07:39:28;3.57;;;3.13;;
7761;SDS011;3925;48.636;9.516;2023-04-15T07:41:55;5.00;;;3.10;;
7761;SDS011;3925;48.636;9.516;2023-04-15T07:44:24;4.20;;;3.50;;
7761;SDS011;3925;48.636;9.516;2023-04-15T07:46:51;6.37;;;3.30;;
7761;SDS011;3925;48.636;9.516;2023-04-15T07:49:18;6.40;;;3.20;;
7761;SDS011;3925;48.636;9.516;2023-04-15T07:51:45;4.17;;;3.53;;
7761;SDS011;3925;48.636;9.516;2023-04-15T07:54:13;3.50;;;3.20;;
7761;SDS011;3925;48.636;9.516;2023-04-15T07:56:39;12.23;;;3.67;;
7761;SDS011;3925;48.636;9.516;2023-04-15T07:59:07;4.97;;;3.70;;
7761;SDS011;3925;48.636;9.516;2023-04-15T08:01:35;4.73;;;3.07;;
7761;SDS011;3925;48.636;9.516;2023-04-15T08:04:03;3.50;;;3.23;;
7761;SDS011;3925;48.636;9.516;2023-04-15T08:06:30;5.33;;;3.20;;
7761;SDS011;3925;48.636;9.516;2023-04-15T08:08:57;5.00;;;3.60;;
7761;SDS011;3925;48.636;9.516;2023-04-15T08:11:23;4.30;;;3.80;;
7761;SDS011;3925;48.636;9.516;2023-04-15T08:13:51;7.40;;;3.70;;
7761;SDS011;3925;48.636;9.516;2023-04-15T08:16:18;3.53;;;3.23;;
7761;SDS011;3925;48.636;9.516;2023-04-15T08:18:49;4.23;;;3.10;;
7761;SDS011;3925;48.636;9.516;2023-04-15T08:21:17;3.70;;;3.07;;
7761;SDS011;3925;48.636;9.516;2023-04-15T08:23:45;3.90;;;3.10;;
7761;SDS011;3925;48.636;9.516;2023-04-15T08:26:13;3.53;;;2.90;;
7761;SDS011;3925;48.636;9.516;2023-04-15T08:28:40;3.73;;;2.47;;
7761;SDS011;3925;48.636;9.516;2023-04-15T08:31:08;3.27;;;2.43;;
7761;SDS011;3925;48.636;9.516;2023-04-15T08:33:35;5.40;;;2.60;;
7761;SDS011;3925;48.636;9.516;2023-04-15T08:36:03;3.40;;;3.10;;
7761;SDS011;3925;48.636;9.516;2023-04-15T08:38:31;3.60;;;2.63;;
7761;SDS011;3925;48.636;9.516;2023-04-15T08:40:59;3.27;;;2.93;;
7761;SDS011;3925;48.636;9.516;2023-04-15T08:43:34;2.77;;;2.13;;
7761;SDS011;3925;48.636;9.516;2023-04-15T08:46:03;3.30;;;3.00;;
7761;SDS011;3925;48.636;9.516;2023-04-15T08:48:31;4.13;;;3.30;;
7761;SDS011;3925;48.636;9.516;2023-04-15T08:50:58;2.70;;;2.50;;
7761;SDS011;3925;48.636;9.516;2023-04-15T08:53:27;4.60;;;2.43;;
7761;SDS011;3925;48.636;9.516;2023-04-15T08:55:55;3.50;;;2.70;;
7761;SDS011;3925;48.636;9.516;2023-04-15T08:58:25;2.13;;;1.93;;
7761;SDS011;3925;48.636;9.516;2023-04-15T09:00:52;3.03;;;2.70;;
7761;SDS011;3925;48.636;9.516;2023-04-15T09:03:20;3.23;;;2.53;;
7761;SDS011;3925;48.636;9.516;2023-04-15T09:05:47;3.43;;;2.73;;
7761;SDS011;3925;48.636;9.516;2023-04-15T09:08:16;3.67;;;2.20;;
7761;SDS011;3925;48.636;9.516;2023-04-15T09:10:44;6.43;;;2.90;;
7761;SDS011;3925;48.636;9.516;2023-04-15T09:13:11;4.50;;;2.70;;
7761;SDS011;3925;48.636;9.516;2023-04-15T09:15:38;3.73;;;2.63;;
7761;SDS011;3925;48.636;9.516;2023-04-15T09:18:04;3.40;;;2.50;;
7761;SDS011;3925;48.636;9.516;2023-04-15T09:20:37;4.10;;;2.50;;
7761;SDS011;3925;48.636;9.516;2023-04-15T09:23:10;3.77;;;2.77;;
7761;SDS011;3925;48.636;9.516;2023-04-15T09:25:38;3.50;;;3.17;;
7761;SDS011;3925;48.636;9.516;2023-04-15T09:28:08;4.50;;;3.00;;
7761;SDS011;3925;48.636;9.516;2023-04-15T09:30:36;3.50;;;2.40;;
7761;SDS011;3925;48.636;9.516;2023-04-15T09:33:03;3.43;;;2.63;;
7761;SDS011;3925;48.636;9.516;2023-04-15T09:35:32;4.73;;;2.80;;
7761;SDS011;3925;48.636;9.516;2023-04-15T09:38:03;3.23;;;2.40;;
7761;SDS011;3925;48.636;9.516;2023-04-15T09:40:32;3.00;;;2.27;;
7761;SDS011;3925;48.636;9.516;2023-04-15T09:43:00;7.40;;;6.70;;
7761;SDS011;3925;48.636;9.516;2023-04-15T09:45:30;3.77;;;3.00;;
7761;SDS011;3925;48.636;9.516;2023-04-15T09:47:58;3.20;;;2.20;;
7761;SDS011;3925;48.636;9.516;2023-04-15T09:50:39;2.67;;;2.40;;
7761;SDS011;3925;48.636;9.516;2023-04-15T09:53:08;3.10;;;2.80;;
7761;SDS011;3925;48.636;9.516;2023-04-15T09:55:35;4.20;;;2.13;;
7761;SDS011;3925;48.636;9.516;2023-04-15T09:58:02;6.73;;;2.43;;
7761;SDS011;3925;48.636;9.516;2023-04-15T10:00:36;3.33;;;2.40;;
7761;SDS011;3925;48.636;9.516;2023-04-15T10:03:04;2.30;;;2.10;;
7761;SDS011;3925;48.636;9.516;2023-04-15T10:05:31;2.53;;;1.70;;
7761;SDS011;3925;48.636;9.516;2023-04-15T10:07:59;3.60;;;2.23;;
7761;SDS011;3925;48.636;9.516;2023-04-15T10:10:28;2.40;;;2.20;;
7761;SDS011;3925;48.636;9.516;2023-04-15T10:12:57;2.10;;;1.90;;
7761;SDS011;3925;48.636;9.516;2023-04-15T10:15:25;3.13;;;2.13;;
7761;SDS011;3925;48.636;9.516;2023-04-15T10:17:55;2.50;;;1.70;;
7761;SDS011;3925;48.636;9.516;2023-04-15T10:20:23;3.60;;;2.20;;
7761;SDS011;3925;48.636;9.516;2023-04-15T10:22:51;3.17;;;1.90;;
7761;SDS011;3925;48.636;9.516;2023-04-15T10:25:18;3.10;;;2.10;;
7761;SDS011;3925;48.636;9.516;2023-04-15T10:27:46;2.93;;;1.93;;
7761;SDS011;3925;48.636;9.516;2023-04-15T10:30:13;4.67;;;3.83;;
7761;SDS011;3925;48.636;9.516;2023-04-15T10:32:41;4.70;;;2.33;;
7761;SDS011;3925;48.636;9.516;2023-04-15T10:35:11;4.23;;;3.50;;
7761;SDS011;3925;48.636;9.516;2023-04-15T10:37:38;3.73;;;2.00;;
7761;SDS011;3925;48.636;9.516;2023-04-15T10:40:24;2.50;;;1.70;;
7761;SDS011;3925;48.636;9.516;2023-04-15T10:42:53;2.33;;;1.50;;
7761;SDS011;3925;48.636;9.516;2023-04-15T10:45:20;3.17;;;2.37;;
7761;SDS011;3925;48.636;9.516;2023-04-15T10:47:50;2.93;;;1.90;;
7761;SDS011;3925;48.636;9.516;2023-04-15T10:50:19;3.13;;;2.23;;
7761;SDS011;3925;48.636;9.516;2023-04-15T10:52:48;3.50;;;2.20;;
7761;SDS011;3925;48.636;9.516;2023-04-15T10:55:17;4.53;;;2.13;;
7761;SDS011;3925;48.636;9.516;2023-04-15T10:57:46;4.30;;;2.43;;
7761;SDS011;3925;48.636;9.516;2023-04-15T11:00:17;2.53;;;2.30;;
7761;SDS011;3925;48.636;9.516;2023-04-15T11:02:45;2.80;;;2.10;;
7761;SDS011;3925;48.636;9.516;2023-04-15T11:05:13;2.93;;;2.27;;
7761;SDS011;3925;48.636;9.516;2023-04-15T11:07:52;3.13;;;2.20;;
7761;SDS011;3925;48.636;9.516;2023-04-15T11:13:19;3.53;;;2.20;;
7761;SDS011;3925;48.636;9.516;2023-04-15T11:15:58;3.10;;;2.27;;
7761;SDS011;3925;48.636;9.516;2023-04-15T11:18:27;4.20;;;2.60;;
7761;SDS011;3925;48.636;9.516;2023-04-15T11:20:56;3.90;;;2.80;;
7761;SDS011;3925;48.636;9.516;2023-04-15T11:23:30;13.73;;;4.57;;
7761;SDS011;3925;48.636;9.516;2023-04-15T11:26:00;4.23;;;3.77;;
7761;SDS011;3925;48.636;9.516;2023-04-15T11:28:30;5.93;;;3.20;;
7761;SDS011;3925;48.636;9.516;2023-04-15T11:31:04;3.37;;;2.07;;
7761;SDS011;3925;48.636;9.516;2023-04-15T11:33:32;5.47;;;3.17;;
7761;SDS011;3925;48.636;9.516;2023-04-15T11:35:59;3.00;;;2.37;;
7761;SDS011;3925;48.636;9.516;2023-04-15T11:38:27;5.57;;;3.50;;
7761;SDS011;3925;48.636;9.516;2023-04-15T11:40:56;7.33;;;4.00;;
7761;SDS011;3925;48.636;9.516;2023-04-15T11:43:23;4.00;;;2.90;;
7761;SDS011;3925;48.636;9.516;2023-04-15T11:45:51;3.10;;;2.20;;
7761;SDS011;3925;48.636;9.516;2023-04-15T11:48:21;3.10;;;2.80;;
7761;SDS011;3925;48.636;9.516;2023-04-15T11:50:52;3.40;;;2.50;;
7761;SDS011;3925;48.636;9.516;2023-04-15T11:53:21;3.40;;;2.97;;
7761;SDS011;3925;48.636;9.516;2023-04-15T11:55:50;4.30;;;3.87;;
7761;SDS011;3925;48.636;9.516;2023-04-15T11:58:18;3.90;;;2.50;;
7761;SDS011;3925;48.636;9.516;2023-04-15T12:00:47;4.70;;;3.07;;
7761;SDS011;3925;48.636;9.516;2023-04-15T12:03:17;4.00;;;3.00;;
7761;SDS011;3925;48.636;9.516;2023-04-15T12:06:07;4.70;;;3.50;;
7761;SDS011;3925;48.636;9.516;2023-04-15T12:08:54;4.63;;;2.70;;
7761;SDS011;3925;48.636;9.516;2023-04-15T12:11:33;4.00;;;3.40;;
7761;SDS011;3925;48.636;9.516;2023-04-15T12:14:02;5.13;;;3.23;;
7761;SDS011;3925;48.636;9.516;2023-04-15T12:16:35;4.23;;;2.90;;
7761;SDS011;3925;48.636;9.516;2023-04-15T12:19:04;5.07;;;3.10;;
7761;SDS011;3925;48.636;9.516;2023-04-15T12:21:33;4.93;;;2.80;;
7761;SDS011;3925;48.636;9.516;2023-04-15T12:24:03;2.77;;;2.33;;
7761;SDS011;3925;48.636;9.516;2023-04-15T12:26:35;4.17;;;3.40;;
7761;SDS011;3925;48.636;9.516;2023-04-15T12:29:04;4.07;;;3.00;;
7761;SDS011;3925;48.636;9.516;2023-04-15T12:31:33;3.40;;;2.60;;
7761;SDS011;3925;48.636;9.516;2023-04-15T12:34:01;4.17;;;2.60;;
7761;SDS011;3925;48.636;9.516;2023-04-15T12:36:28;3.00;;;2.10;;
7761;SDS011;3925;48.636;9.516;2023-04-15T12:39:00;5.63;;;3.23;;
7761;SDS011;3925;48.636;9.516;2023-04-15T12:41:27;3.73;;;2.60;;
7761;SDS011;3925;48.636;9.516;2023-04-15T12:43:56;3.73;;;3.43;;
7761;SDS011;3925;48.636;9.516;2023-04-15T12:46:22;4.63;;;4.20;;
7761;SDS011;3925;48.636;9.516;2023-04-15T12:48:49;4.00;;;3.10;;
7761;SDS011;3925;48.636;9.516;2023-04-15T12:51:17;8.70;;;3.20;;
7761;SDS011;3925;48.636;9.516;2023-04-15T12:53:45;6.00;;;3.60;;
7761;SDS011;3925;48.636;9.516;2023-04-15T12:56:13;3.80;;;3.40;;
7761;SDS011;3925;48.636;9.516;2023-04-15T12:58:40;5.47;;;3.40;;
7761;SDS011;3925;48.636;9.516;2023-04-15T13:01:09;3.70;;;3.40;;
7761;SDS011;3925;48.636;9.516;2023-04-15T13:03:36;3.40;;;3.20;;
7761;SDS011;3925;48.636;9.516;2023-04-15T13:06:03;4.50;;;3.20;;
7761;SDS011;3925;48.636;9.516;2023-04-15T13:08:30;4.00;;;3.63;;
7761;SDS011;3925;48.636;9.516;2023-04-15T13:10:57;6.67;;;6.03;;
7761;SDS011;3925;48.636;9.516;2023-04-15T13:13:24;3.70;;;3.40;;
7761;SDS011;3925;48.636;9.516;2023-04-15T13:15:51;3.77;;;3.47;;
7761;SDS011;3925;48.636;9.516;2023-04-15T13:18:19;4.20;;;2.90;;
7761;SDS011;3925;48.636;9.516;2023-04-15T13:20:47;4.47;;;2.90;;
7761;SDS011;3925;48.636;9.516;2023-04-15T13:23:14;3.10;;;2.40;;
7761;SDS011;3925;48.636;9.516;2023-04-15T13:25:41;3.50;;;2.50;;
7761;SDS011;3925;48.636;9.516;2023-04-15T13:28:09;4.00;;;2.20;;
7761;SDS011;3925;48.636;9.516;2023-04-15T13:30:36;2.40;;;2.20;;
7761;SDS011;3925;48.636;9.516;2023-04-15T13:33:03;2.80;;;2.60;;
7761;SDS011;3925;48.636;9.516;2023-04-15T13:35:32;4.20;;;2.70;;
7761;SDS011;3925;48.636;9.516;2023-04-15T13:37:59;2.70;;;2.50;;
7761;SDS011;3925;48.636;9.516;2023-04-15T13:40:25;3.23;;;2.37;;
7761;SDS011;3925;48.636;9.516;2023-04-15T13:42:52;3.73;;;3.43;;
7761;SDS011;3925;48.636;9.516;2023-04-15T13:45:20;2.83;;;2.27;;
7761;SDS011;3925;48.636;9.516;2023-04-15T13:47:47;1.80;;;1.70;;
7761;SDS011;3925;48.636;9.516;2023-04-15T13:50:13;6.07;;;2.47;;
7761;SDS011;3925;48.636;9.516;2023-04-15T13:52:42;4.20;;;2.03;;
7761;SDS011;3925;48.636;9.516;2023-04-15T13:55:09;2.20;;;1.70;;
7761;SDS011;3925;48.636;9.516;2023-04-15T13:57:36;1.97;;;1.87;;
7761;SDS011;3925;48.636;9.516;2023-04-15T14:00:03;1.80;;;1.70;;
7761;SDS011;3925;48.636;9.516;2023-04-15T14:02:31;4.00;;;1.80;;
7761;SDS011;3925;48.636;9.516;2023-04-15T14:04:57;1.57;;;1.47;;
7761;SDS011;3925;48.636;9.516;2023-04-15T14:07:24;1.80;;;1.20;;
7761;SDS011;3925;48.636;9.516;2023-04-15T14:09:53;1.50;;;1.40;;
7761;SDS011;3925;48.636;9.516;2023-04-15T14:12:20;3.03;;;1.60;;
7761;SDS011;3925;48.636;9.516;2023-04-15T14:14:47;3.43;;;1.17;;
7761;SDS011;3925;48.636;9.516;2023-04-15T14:17:14;2.93;;;1.73;;
7761;SDS011;3925;48.636;9.516;2023-04-15T14:19:41;1.40;;;1.10;;
7761;SDS011;3925;48.636;9.516;2023-04-15T14:22:07;1.13;;;1.10;;
7761;SDS011;3925;48.636;9.516;2023-04-15T14:24:34;1.20;;;1.00;;
7761;SDS011;3925;48.636;9.516;2023-04-15T14:27:03;4.40;;;1.97;;
7761;SDS011;3925;48.636;9.516;2023-04-15T14:29:30;1.97;;;1.20;;
7761;SDS011;3925;48.636;9.516;2023-04-15T14:31:56;2.23;;;1.17;;
7761;SDS011;3925;48.636;9.516;2023-04-15T14:34:23;2.77;;;1.27;;
7761;SDS011;3925;48.636;9.516;2023-04-15T14:36:50;1.73;;;1.20;;
7761;SDS011;3925;48.636;9.516;2023-04-15T14:39:18;2.23;;;1.00;;
7761;SDS011;3925;48.636;9.516;2023-04-15T14:41:44;1.10;;;1.10;;
7761;SDS011;3925;48.636;9.516;2023-04-15T14:44:13;1.40;;;1.00;;
7761;SDS011;3925;48.636;9.516;2023-04-15T14:46:40;1.23;;;0.93;;
7761;SDS011;3925;48.636;9.516;2023-04-15T14:49:07;2.00;;;1.10;;
7761;SDS011;3925;48.636;9.516;2023-04-15T14:51:34;2.60;;;1.07;;
7761;SDS011;3925;48.636;9.516;2023-04-15T14:54:01;1.63;;;1.40;;
7761;SDS011;3925;48.636;9.516;2023-04-15T14:56:28;3.03;;;1.37;;
7761;SDS011;3925;48.636;9.516;2023-04-15T14:58:55;1.17;;;1.07;;
7761;SDS011;3925;48.636;9.516;2023-04-15T15:01:23;2.60;;;2.00;;
7761;SDS011;3925;48.636;9.516;2023-04-15T15:03:50;3.10;;;2.30;;
7761;SDS011;3925;48.636;9.516;2023-04-15T15:06:16;0.80;;;0.80;;
7761;SDS011;3925;48.636;9.516;2023-04-15T15:08:45;2.47;;;1.40;;
7761;SDS011;3925;48.636;9.516;2023-04-15T15:11:12;3.53;;;1.00;;
7761;SDS011;3925;48.636;9.516;2023-04-15T15:13:38;1.97;;;1.43;;
7761;SDS011;3925;48.636;9.516;2023-04-15T15:16:06;4.40;;;2.50;;
7761;SDS011;3925;48.636;9.516;2023-04-15T15:18:34;2.83;;;2.03;;
7761;SDS011;3925;48.636;9.516;2023-04-15T15:21:01;1.70;;;1.60;;
7761;SDS011;3925;48.636;9.516;2023-04-15T15:23:30;1.60;;;1.50;;
7761;SDS011;3925;48.636;9.516;2023-04-15T15:25:57;2.50;;;1.20;;